createdAt,value
2022-12-27T00:02:02.463Z,100312.47
2022-12-27T00:06:13.214Z,100308.84
2022-12-27T00:10:14.926Z,100314.63
2022-12-27T00:14:16.324Z,100316.00
2022-12-27T00:18:17.813Z,100319.25
2022-12-27T00:22:19.417Z,100320.88
2022-12-27T00:26:29.063Z,100322.53
2022-12-27T00:30:31.353Z,100322.63
2022-12-27T00:34:32.751Z,100319.19
2022-12-27T00:38:34.180Z,100322.53
2022-12-27T00:42:35.560Z,100327.53
2022-12-27T00:46:37.095Z,100329.78
2022-12-27T00:50:42.872Z,100337.44
2022-12-27T00:54:44.192Z,100338.59
2022-12-27T00:58:45.588Z,100339.41
2022-12-27T01:02:47.499Z,100332.66
2022-12-27T01:06:48.891Z,100337.38
2022-12-27T01:10:50.203Z,100332.72
2022-12-27T01:14:51.674Z,100336.16
2022-12-27T01:18:53.930Z,100345.81
2022-12-27T01:22:55.410Z,100346.38
2022-12-27T01:26:56.815Z,100349.75
2022-12-27T01:30:58.125Z,100351.66
2022-12-27T01:34:59.673Z,100355.19
2022-12-27T01:39:01.244Z,100355.75
2022-12-27T01:43:02.794Z,100356.91
2022-12-27T01:47:31.199Z,100360.09
2022-12-27T01:51:32.597Z,100356.53
2022-12-27T01:55:41.886Z,100369.88
2022-12-27T01:59:43.340Z,100379.16
2022-12-27T02:04:07.266Z,100386.53
2022-12-27T02:08:36.333Z,100389.81
2022-12-27T02:12:38.572Z,100394.00
2022-12-27T02:16:39.999Z,100394.00
2022-12-27T02:21:10.107Z,100393.25
2022-12-27T02:25:29.938Z,100397.88
2022-12-27T02:29:37.609Z,100397.78
2022-12-27T02:33:46.859Z,100392.38
2022-12-27T02:37:55.406Z,100390.84
2022-12-27T02:42:16.017Z,100392.09
2022-12-27T02:46:39.567Z,100381.13
2022-12-27T02:51:29.187Z,100380.19
2022-12-27T02:56:14.290Z,100391.16
2022-12-27T03:00:37.247Z,100398.91
2022-12-27T03:04:47.418Z,100384.34
2022-12-27T03:09:08.965Z,100385.97
2022-12-27T03:13:45.494Z,100384.34
2022-12-27T03:17:55.270Z,100390.84
2022-12-27T03:22:15.292Z,100392.38
2022-12-27T03:26:18.645Z,100397.44
2022-12-27T03:30:38.664Z,100401.38
2022-12-27T03:34:47.347Z,100401.13
2022-12-27T03:38:59.914Z,100399.31
2022-12-27T03:43:11.483Z,100398.44
2022-12-27T03:47:20.470Z,100404.22
2022-12-27T03:51:25.532Z,100406.16
2022-12-27T03:55:33.143Z,100410.00
2022-12-27T03:59:35.283Z,100413.38
2022-12-27T04:03:36.803Z,100411.41
2022-12-27T04:07:38.379Z,100417.56
2022-12-27T04:11:58.147Z,100428.59
2022-12-27T04:16:18.402Z,100423.13
2022-12-27T04:20:39.211Z,100428.25
2022-12-27T04:24:59.408Z,100421.56
2022-12-27T04:29:19.445Z,100424.44
2022-12-27T04:33:39.512Z,100423.25
2022-12-27T04:37:40.868Z,100426.09
2022-12-27T04:42:01.051Z,100429.31
2022-12-27T04:46:20.843Z,100427.44
2022-12-27T04:50:45.492Z,100419.47
2022-12-27T04:54:59.046Z,100431.59
2022-12-27T04:59:19.273Z,100427.56
2022-12-27T05:03:23.196Z,100436.81
2022-12-27T05:07:43.489Z,100431.63
2022-12-27T05:12:03.462Z,100434.75
2022-12-27T05:16:05.474Z,100439.91
2022-12-27T05:20:07.598Z,100445.75
2022-12-27T05:24:27.687Z,100452.47
2022-12-27T05:28:29.087Z,100455.16
2022-12-27T05:32:30.719Z,100452.88
2022-12-27T05:36:32.580Z,100457.06
2022-12-27T05:40:34.433Z,100460.34
2022-12-27T05:44:35.977Z,100459.06
2022-12-27T05:48:37.600Z,100458.91
2022-12-27T05:52:41.155Z,100458.56
2022-12-27T05:56:42.844Z,100460.16
2022-12-27T06:00:44.318Z,100467.72
2022-12-27T06:04:45.879Z,100473.09
2022-12-27T06:08:47.655Z,100478.09
2022-12-27T06:12:49.048Z,100474.53
2022-12-27T06:16:50.518Z,100481.63
2022-12-27T06:20:51.902Z,100468.50
2022-12-27T06:24:53.438Z,100472.00
2022-12-27T06:28:56.588Z,100473.06
2022-12-27T06:32:57.962Z,100479.94
2022-12-27T06:36:59.514Z,100478.06
2022-12-27T06:41:02.728Z,100478.19
2022-12-27T06:45:09.429Z,100477.81
2022-12-27T06:49:11.506Z,100480.28
2022-12-27T06:53:12.831Z,100477.75
2022-12-27T06:57:14.342Z,100479.25
2022-12-27T07:01:21.467Z,100477.25
2022-12-27T07:05:22.964Z,100470.19
2022-12-27T07:09:24.394Z,100479.81
2022-12-27T07:13:25.833Z,100491.38
2022-12-27T07:17:27.198Z,100498.41
2022-12-27T07:21:29.727Z,100508.63
2022-12-27T07:25:32.129Z,100505.28
2022-12-27T07:29:33.728Z,100509.25
2022-12-27T07:33:36.710Z,100513.56
2022-12-27T07:37:38.308Z,100511.44
2022-12-27T07:41:39.762Z,100524.72
2022-12-27T07:45:41.138Z,100521.78
2022-12-27T07:49:42.567Z,100524.44
2022-12-27T07:53:44.019Z,100529.47
2022-12-27T07:57:45.382Z,100533.56
2022-12-27T08:02:04.949Z,100536.03
2022-12-27T08:06:08.427Z,100538.59
2022-12-27T08:10:10.396Z,100537.63
2022-12-27T08:14:11.781Z,100539.19
2022-12-27T08:18:13.376Z,100542.78
2022-12-27T08:22:15.424Z,100542.75
2022-12-27T08:26:16.886Z,100557.00
2022-12-27T08:30:18.490Z,100557.31
2022-12-27T08:34:20.006Z,100557.34
2022-12-27T08:38:21.356Z,100555.69
2022-12-27T08:42:22.902Z,100564.63
2022-12-27T08:46:24.277Z,100564.31
2022-12-27T08:50:26.616Z,100564.47
2022-12-27T08:54:28.097Z,100574.31
2022-12-27T08:58:29.649Z,100569.66
2022-12-27T09:02:31.113Z,100566.78
2022-12-27T09:06:32.664Z,100579.09
2022-12-27T09:10:34.274Z,100571.97
2022-12-27T09:14:35.607Z,100566.91
2022-12-27T09:18:38.316Z,100567.91
2022-12-27T09:22:39.898Z,100566.41
2022-12-27T09:26:41.681Z,100566.50
2022-12-27T09:30:44.260Z,100572.78
2022-12-27T09:34:45.644Z,100576.06
2022-12-27T09:38:48.499Z,100580.84
2022-12-27T09:43:19.120Z,100585.28
2022-12-27T09:48:03.203Z,100582.78
2022-12-27T09:52:22.386Z,100582.22
2022-12-27T09:56:46.932Z,100581.75
2022-12-27T10:00:52.247Z,100579.81
2022-12-27T10:09:23.807Z,100575.69
2022-12-27T10:13:35.695Z,100568.56
2022-12-27T10:17:53.584Z,100562.94
2022-12-27T10:22:23.310Z,100559.19
2022-12-27T10:26:25.012Z,100551.88
2022-12-27T10:30:28.226Z,100548.81
2022-12-27T10:34:29.760Z,100543.41
2022-12-27T10:38:35.387Z,100540.63
2022-12-27T10:42:44.051Z,100535.22
2022-12-27T10:46:51.718Z,100540.09
2022-12-27T10:50:57.102Z,100533.09
2022-12-27T10:54:58.596Z,100543.97
2022-12-27T10:59:16.984Z,100540.28
2022-12-27T11:03:18.953Z,100542.53
2022-12-27T11:07:20.338Z,100537.91
2022-12-27T11:11:24.798Z,100538.94
2022-12-27T11:15:29.592Z,100541.63
2022-12-27T11:19:30.977Z,100534.88
2022-12-27T11:23:44.521Z,100532.41
2022-12-27T11:27:48.915Z,100529.06
2022-12-27T11:31:52.091Z,100529.28
2022-12-27T11:35:56.217Z,100530.38
2022-12-27T11:40:20.254Z,100520.34
2022-12-27T11:44:32.631Z,100524.00
2022-12-27T11:48:40.751Z,100516.31
2022-12-27T11:52:53.220Z,100515.56
2022-12-27T11:57:08.852Z,100512.31
2022-12-27T12:01:32.246Z,100498.75
2022-12-27T12:05:50.980Z,100497.16
2022-12-27T12:10:21.363Z,100497.53
2022-12-27T12:15:00.518Z,100507.25
2022-12-27T12:19:17.155Z,100494.34
2022-12-27T12:23:53.972Z,100493.47
2022-12-27T12:28:47.358Z,100501.22
2022-12-27T12:32:59.375Z,100503.66
2022-12-27T12:37:15.424Z,100496.88
2022-12-27T12:41:35.457Z,100500.34
2022-12-27T12:46:01.104Z,100504.66
2022-12-27T12:50:21.857Z,100508.84
2022-12-27T12:54:48.682Z,100510.34
2022-12-27T12:59:13.023Z,100512.09
2022-12-27T13:03:39.914Z,100510.41
2022-12-27T13:08:01.766Z,100503.56
2022-12-27T13:12:16.926Z,100495.88
2022-12-27T13:16:33.642Z,100488.22
2022-12-27T13:20:55.748Z,100490.06
2022-12-27T13:25:13.935Z,100480.69
2022-12-27T13:29:55.470Z,100465.13
2022-12-27T13:34:34.997Z,100455.88
2022-12-27T13:38:48.642Z,100443.16
2022-12-27T13:43:12.303Z,100435.38
2022-12-27T13:47:42.781Z,100438.91
2022-12-27T13:51:46.993Z,100433.75
2022-12-27T13:56:52.049Z,100422.34
2022-12-27T14:00:50.857Z,100418.66
2022-12-27T14:05:26.028Z,100415.94
2022-12-27T14:10:06.909Z,100414.94
2022-12-27T14:14:12.444Z,100419.97
2022-12-27T14:18:32.550Z,100408.53
2022-12-27T14:22:54.463Z,100399.91
2022-12-27T14:27:46.482Z,100405.94
2022-12-27T14:32:08.393Z,100397.88
2022-12-27T14:36:47.023Z,100404.34
2022-12-27T14:40:57.523Z,100410.06
2022-12-27T14:45:13.536Z,100411.53
2022-12-27T14:49:33.665Z,100419.72
2022-12-27T14:53:53.466Z,100424.56
2022-12-27T14:57:54.871Z,100424.53
2022-12-27T15:01:56.241Z,100419.22
2022-12-27T15:06:04.090Z,100396.47
2022-12-27T15:10:20.667Z,100409.56
2022-12-27T15:14:46.661Z,100409.28
2022-12-27T15:19:08.219Z,100418.50
2022-12-27T15:23:31.127Z,100413.00
2022-12-27T15:27:42.514Z,100407.19
2022-12-27T15:31:59.509Z,100399.16
2022-12-27T15:36:14.477Z,100406.53
2022-12-27T15:40:34.512Z,100392.50
2022-12-27T15:45:10.134Z,100386.94
2022-12-27T15:49:46.179Z,100386.38
2022-12-27T15:54:08.163Z,100401.09
2022-12-27T15:58:20.768Z,100401.19
2022-12-27T16:02:28.288Z,100397.97
2022-12-27T16:06:35.788Z,100400.97
2022-12-27T16:10:39.954Z,100410.72
2022-12-27T16:14:43.127Z,100412.19
2022-12-27T16:19:11.279Z,100405.53
2022-12-27T16:23:12.640Z,100398.41
2022-12-27T16:27:28.390Z,100399.56
2022-12-27T16:31:31.963Z,100390.81
2022-12-27T16:35:33.687Z,100394.59
2022-12-27T16:39:54.423Z,100387.47
2022-12-27T16:44:01.836Z,100381.31
2022-12-27T16:48:47.532Z,100378.63
2022-12-27T16:53:07.955Z,100372.31
2022-12-27T16:57:24.818Z,100377.50
2022-12-27T17:01:26.328Z,100377.09
2022-12-27T17:05:36.921Z,100374.53
2022-12-27T17:09:40.529Z,100370.47
2022-12-27T17:13:57.055Z,100371.75
2022-12-27T17:18:09.162Z,100372.56
2022-12-27T17:22:15.191Z,100367.97
2022-12-27T17:26:33.686Z,100365.72
2022-12-27T17:31:04.464Z,100365.47
2022-12-27T17:35:31.961Z,100356.25
2022-12-27T17:39:52.959Z,100355.50
2022-12-27T17:44:24.704Z,100361.31
2022-12-27T17:48:30.495Z,100349.53
2022-12-27T17:52:50.497Z,100337.91
2022-12-27T17:57:19.271Z,100339.75
2022-12-27T18:01:20.663Z,100347.22
2022-12-27T18:05:30.788Z,100346.53
2022-12-27T18:09:39.750Z,100341.94
2022-12-27T18:13:50.422Z,100342.25
2022-12-27T18:17:58.025Z,100332.34
2022-12-27T18:22:01.497Z,100325.63
2022-12-27T18:26:13.219Z,100320.25
2022-12-27T18:30:15.265Z,100312.19
2022-12-27T18:34:33.578Z,100308.63
2022-12-27T18:38:40.115Z,100308.16
2022-12-27T18:42:44.654Z,100301.09
2022-12-27T18:46:50.041Z,100294.16
2022-12-27T18:50:53.578Z,100288.91
2022-12-27T18:54:55.359Z,100284.44
2022-12-27T18:59:16.521Z,100293.06
2022-12-27T19:03:20.442Z,100281.59
2022-12-27T19:07:22.068Z,100284.53
2022-12-27T19:11:29.345Z,100272.81
2022-12-27T19:15:43.250Z,100259.22
2022-12-27T19:19:51.303Z,100246.78
2022-12-27T19:23:52.929Z,100242.56
2022-12-27T19:28:09.656Z,100241.78
2022-12-27T19:32:11.090Z,100246.00
2022-12-27T19:36:13.506Z,100245.03
2022-12-27T19:40:15.375Z,100243.28
2022-12-27T19:44:17.210Z,100231.25
2022-12-27T19:48:18.853Z,100226.72
2022-12-27T19:52:26.676Z,100225.56
2022-12-27T19:56:28.244Z,100224.44
2022-12-27T20:00:29.738Z,100217.28
2022-12-27T20:04:31.181Z,100212.13
2022-12-27T20:08:36.833Z,100207.56
2022-12-27T20:12:38.227Z,100203.09
2022-12-27T20:16:40.243Z,100198.72
2022-12-27T20:20:42.501Z,100202.00
2022-12-27T20:24:44.632Z,100204.34
2022-12-27T20:28:46.263Z,100208.78
2022-12-27T20:32:47.769Z,100190.19
2022-12-27T20:36:49.088Z,100193.69
2022-12-27T20:40:50.790Z,100198.00
2022-12-27T20:44:52.136Z,100199.75
2022-12-27T20:48:54.485Z,100187.22
2022-12-27T20:52:56.125Z,100176.41
2022-12-27T20:56:57.460Z,100167.00
2022-12-27T21:01:15.485Z,100165.53
2022-12-27T21:05:17.128Z,100151.00
2022-12-27T21:09:18.962Z,100160.72
2022-12-27T21:13:20.322Z,100151.59
2022-12-27T21:17:22.372Z,100159.84
2022-12-27T21:21:28.496Z,100160.63
2022-12-27T21:25:30.322Z,100162.38
2022-12-27T21:29:31.758Z,100159.59
2022-12-27T21:33:33.850Z,100156.41
2022-12-27T21:37:35.542Z,100147.44
2022-12-27T21:41:39.430Z,100146.75
2022-12-27T21:45:40.909Z,100155.50
2022-12-27T21:49:42.295Z,100151.94
2022-12-27T21:53:44.359Z,100155.19
2022-12-27T21:57:45.768Z,100140.44
2022-12-27T22:01:50.316Z,100136.34
2022-12-27T22:05:53.031Z,100119.50
2022-12-27T22:09:54.367Z,100122.41
2022-12-27T22:13:56.585Z,100119.75
2022-12-27T22:17:58.195Z,100117.63
2022-12-27T22:21:59.658Z,100123.28
2022-12-27T22:26:01.388Z,100122.84
2022-12-27T22:30:04.694Z,100124.19
2022-12-27T22:34:06.157Z,100133.00
2022-12-27T22:38:07.579Z,100133.66
2022-12-27T22:42:09.297Z,100128.84
2022-12-27T22:46:12.517Z,100126.69
2022-12-27T22:50:14.085Z,100121.91
2022-12-27T22:54:15.465Z,100116.25
2022-12-27T22:58:17.039Z,100113.09
2022-12-27T23:02:18.513Z,100110.09
2022-12-27T23:06:21.018Z,100105.47
2022-12-27T23:10:22.564Z,100094.75
2022-12-27T23:14:23.983Z,100093.22
2022-12-27T23:18:26.203Z,100089.50
2022-12-27T23:22:27.555Z,100082.28
2022-12-27T23:26:29.032Z,100077.47
2022-12-27T23:30:30.466Z,100047.06
2022-12-27T23:34:31.882Z,100055.81
2022-12-27T23:38:33.450Z,100041.38
2022-12-27T23:42:34.790Z,100032.34
2022-12-27T23:46:36.270Z,100038.53
2022-12-27T23:50:37.732Z,100021.50
2022-12-27T23:54:39.064Z,100013.88
2022-12-27T23:58:40.778Z,100009.91
